Time;durP1;ratioP1;P1;durP2;ratioP2;P2;SDS_P1;SDS_P2;PMS_P1;PMS_P2;Temp;Humidity;BMP_temperature;BMP_pressure;BME280_temperature;BME280_humidity;BME280_pressure;Samples;Min_cycle;Max_cycle;Signal;HPM_P1;HPM_P2
2020/12/01 00:01:40;;;;;;;33.27;22.67;;;1.40;99.90;;;;;;5094754;28;20297;-45
2020/12/01 00:04:07;;;;;;;30.17;22.27;;;1.40;99.90;;;;;;5094585;28;20626;-44
2020/12/01 00:06:34;;;;;;;31.87;22.50;;;1.50;99.90;;;;;;5094351;28;20248;-45
2020/12/01 00:09:02;;;;;;;29.63;22.40;;;1.60;99.90;;;;;;5094694;28;20578;-43
2020/12/01 00:11:29;;;;;;;32.73;22.40;;;1.70;99.90;;;;;;5094052;28;20297;-44
2020/12/01 00:13:56;;;;;;;33.20;24.30;;;1.70;99.90;;;;;;5094566;28;20272;-49
2020/12/01 00:16:23;;;;;;;29.77;21.83;;;1.80;99.90;;;;;;5094364;28;20253;-47
2020/12/01 00:18:51;;;;;;;29.63;21.93;;;1.80;99.90;;;;;;5094343;28;20207;-43
2020/12/01 00:21:19;;;;;;;31.03;21.63;;;1.90;99.90;;;;;;5093976;28;20744;-43
2020/12/01 00:23:47;;;;;;;31.63;22.77;;;1.80;99.90;;;;;;5094344;28;20210;-43
2020/12/01 00:26:16;;;;;;;30.40;22.37;;;1.80;99.90;;;;;;5094331;28;20218;-43
2020/12/01 00:28:44;;;;;;;29.57;21.20;;;1.80;99.90;;;;;;5094063;28;20302;-43
2020/12/01 00:31:11;;;;;;;35.50;23.53;;;1.80;99.90;;;;;;5093863;28;20687;-44
2020/12/01 00:33:38;;;;;;;31.77;22.20;;;1.70;99.90;;;;;;5093944;28;20206;-43
2020/12/01 00:36:06;;;;;;;32.50;21.77;;;1.70;99.90;;;;;;5094055;28;20203;-43
2020/12/01 00:38:34;;;;;;;31.20;21.43;;;1.70;99.90;;;;;;5093744;28;20344;-42
2020/12/01 00:41:01;;;;;;;31.10;20.90;;;1.70;99.90;;;;;;5093964;28;20211;-45
2020/12/01 00:43:29;;;;;;;26.20;19.37;;;1.70;99.90;;;;;;5093963;28;20228;-47
2020/12/01 00:45:56;;;;;;;29.47;20.17;;;1.70;99.90;;;;;;5093767;28;20253;-46
2020/12/01 00:48:23;;;;;;;31.37;22.83;;;1.70;99.90;;;;;;5093679;28;20324;-41
2020/12/01 00:50:51;;;;;;;30.37;21.73;;;1.60;99.90;;;;;;5093899;28;20226;-43
2020/12/01 00:53:18;;;;;;;33.50;22.97;;;1.60;99.90;;;;;;5093686;28;20249;-41
2020/12/01 00:55:45;;;;;;;34.57;21.57;;;1.50;99.90;;;;;;5093731;28;20297;-46
2020/12/01 00:58:12;;;;;;;35.00;22.87;;;1.40;99.90;;;;;;5093850;28;20206;-43
2020/12/01 01:00:41;;;;;;;33.37;22.00;;;1.50;99.90;;;;;;5093643;28;20515;-43
2020/12/01 01:03:08;;;;;;;38.17;27.57;;;1.50;99.90;;;;;;5093749;28;20340;-42
2020/12/01 01:05:35;;;;;;;40.97;27.80;;;1.50;99.90;;;;;;5093090;28;20374;-43
2020/12/01 01:08:02;;;;;;;29.57;21.10;;;1.50;99.90;;;;;;5093542;28;20202;-43
2020/12/01 01:10:31;;;;;;;32.80;23.00;;;1.50;99.90;;;;;;5093228;28;20317;-44
2020/12/01 01:12:59;;;;;;;35.23;24.90;;;1.50;99.90;;;;;;5093158;28;20211;-42
2020/12/01 01:15:28;;;;;;;34.20;23.87;;;1.50;99.90;;;;;;5093242;28;20297;-42
2020/12/01 01:17:57;;;;;;;30.50;22.30;;;1.40;99.90;;;;;;5093418;28;20313;-45
2020/12/01 01:20:26;;;;;;;30.43;21.83;;;1.40;99.90;;;;;;5093191;28;20239;-41
2020/12/01 01:22:53;;;;;;;35.20;22.45;;;1.40;99.90;;;;;;5092153;28;20206;-43
2020/12/01 01:25:21;;;;;;;27.47;20.47;;;1.50;99.90;;;;;;5093124;28;20206;-44
2020/12/01 01:27:48;;;;;;;29.53;21.97;;;1.50;99.90;;;;;;5092816;28;20637;-42
2020/12/01 01:30:18;;;;;;;31.33;23.10;;;1.50;99.90;;;;;;5092979;28;20262;-48
2020/12/01 01:32:45;;;;;;;31.17;20.97;;;1.60;99.90;;;;;;5093021;28;20233;-44
2020/12/01 01:35:15;;;;;;;28.50;21.75;;;1.60;99.90;;;;;;5092812;28;20635;-43
2020/12/01 01:37:42;;;;;;;25.67;19.63;;;1.60;99.90;;;;;;5092819;28;20239;-43
2020/12/01 01:40:17;;;;;;;29.37;21.07;;;1.60;99.90;;;;;;5093094;28;20203;-50
2020/12/01 01:42:44;;;;;;;31.48;22.75;;;1.60;99.90;;;;;;5092962;28;20305;-45
2020/12/01 01:45:11;;;;;;;34.90;24.63;;;1.60;99.90;;;;;;5092960;28;20233;-44
2020/12/01 01:47:39;;;;;;;34.93;23.07;;;1.60;99.90;;;;;;5092691;28;20655;-43
2020/12/01 01:50:13;;;;;;;42.63;28.17;;;1.60;99.90;;;;;;5092621;28;20317;-42
2020/12/01 01:52:43;;;;;;;30.23;21.83;;;1.60;99.90;;;;;;5092716;28;20595;-43
2020/12/01 01:55:14;;;;;;;32.43;22.17;;;1.70;99.90;;;;;;5092547;28;20238;-45
2020/12/01 01:57:43;;;;;;;36.00;25.10;;;1.70;99.90;;;;;;5092753;28;20235;-44
2020/12/01 02:00:32;;;;;;;44.20;29.47;;;1.80;99.90;;;;;;5092455;28;20298;-46
2020/12/01 02:02:59;;;;;;;28.77;21.37;;;1.80;99.90;;;;;;5092508;28;20217;-45
2020/12/01 02:05:25;;;;;;;30.67;22.03;;;1.80;99.90;;;;;;5092412;28;20206;-45
2020/12/01 02:07:53;;;;;;;33.47;22.90;;;1.90;99.90;;;;;;5092602;28;20740;-43
2020/12/01 02:10:20;;;;;;;29.00;21.03;;;1.90;99.90;;;;;;5092141;28;20322;-44
2020/12/01 02:12:51;;;;;;;33.37;23.70;;;1.90;99.90;;;;;;5092258;28;20297;-43
2020/12/01 02:15:18;;;;;;;27.17;21.23;;;2.00;99.90;;;;;;5092318;28;20728;-42
2020/12/01 02:17:45;;;;;;;28.23;21.10;;;2.00;99.90;;;;;;5092011;28;20240;-44
2020/12/01 02:20:18;;;;;;;32.27;22.43;;;2.00;99.90;;;;;;5092398;28;20290;-42
2020/12/01 02:22:49;;;;;;;28.50;19.93;;;2.00;99.90;;;;;;5092124;28;20606;-45
2020/12/01 02:25:19;;;;;;;27.90;20.70;;;2.10;99.90;;;;;;5092230;28;20210;-43
2020/12/01 02:27:49;;;;;;;30.53;20.30;;;2.00;99.90;;;;;;5092065;28;20306;-44
2020/12/01 02:30:17;;;;;;;28.80;21.10;;;2.00;99.90;;;;;;5091967;28;20610;-41
2020/12/01 02:32:44;;;;;;;55.73;38.37;;;2.10;99.90;;;;;;5091537;28;20215;-42
2020/12/01 02:35:11;;;;;;;27.53;21.17;;;2.10;99.90;;;;;;5092196;28;20217;-41
2020/12/01 02:37:40;;;;;;;25.07;19.23;;;2.10;99.90;;;;;;5091836;28;20276;-44
2020/12/01 02:40:08;;;;;;;32.67;21.87;;;2.10;99.90;;;;;;5091707;28;20680;-42
2020/12/01 02:42:35;;;;;;;27.93;18.30;;;2.10;99.90;;;;;;5092024;28;20349;-43
2020/12/01 02:45:05;;;;;;;36.37;25.87;;;2.10;99.90;;;;;;5091730;28;20289;-44
2020/12/01 02:47:41;;;;;;;30.97;21.37;;;2.20;99.90;;;;;;5091920;28;20206;-44
2020/12/01 02:50:09;;;;;;;27.87;18.80;;;2.20;99.90;;;;;;5091744;28;20262;-43
2020/12/01 02:52:36;;;;;;;26.53;20.30;;;2.20;99.90;;;;;;5091732;28;20633;-44
2020/12/01 02:55:04;;;;;;;28.63;21.00;;;2.20;99.90;;;;;;5092348;28;20576;-45
2020/12/01 02:57:31;;;;;;;26.47;20.10;;;2.10;99.90;;;;;;5091668;28;20306;-46
2020/12/01 02:59:58;;;;;;;26.60;20.27;;;2.10;99.90;;;;;;5091858;28;20297;-47
2020/12/01 03:02:26;;;;;;;28.40;20.33;;;2.10;99.90;;;;;;5091654;28;20210;-43
2020/12/01 03:04:54;;;;;;;29.47;20.10;;;2.20;99.90;;;;;;5091794;28;20206;-44
2020/12/01 03:07:21;;;;;;;28.80;20.53;;;2.30;99.90;;;;;;5091632;28;20301;-46
2020/12/01 03:09:48;;;;;;;27.67;19.93;;;2.40;99.90;;;;;;5091511;28;20229;-43
2020/12/01 03:12:15;;;;;;;27.67;20.60;;;2.40;99.90;;;;;;5091970;28;20302;-45
2020/12/01 03:14:42;;;;;;;33.03;22.90;;;2.50;99.90;;;;;;5091738;28;20210;-45
2020/12/01 03:17:09;;;;;;;35.50;23.80;;;2.50;99.90;;;;;;5091642;28;20232;-44
2020/12/01 03:19:37;;;;;;;31.43;23.23;;;2.50;99.90;;;;;;5091680;28;20206;-45
2020/12/01 03:22:04;;;;;;;28.93;20.67;;;2.50;99.90;;;;;;5091380;28;20215;-45
2020/12/01 03:24:31;;;;;;;27.37;18.87;;;2.50;99.90;;;;;;5091460;28;20234;-45
2020/12/01 03:26:58;;;;;;;28.47;20.77;;;2.50;99.90;;;;;;5091772;28;20210;-42
2020/12/01 03:29:25;;;;;;;25.90;19.07;;;2.50;99.90;;;;;;5091494;28;20264;-43
2020/12/01 03:31:52;;;;;;;28.73;20.23;;;2.50;99.90;;;;;;5091296;28;20222;-43
2020/12/01 03:34:19;;;;;;;26.50;21.23;;;2.60;99.90;;;;;;5091339;28;20207;-44
2020/12/01 03:36:47;;;;;;;25.00;19.97;;;2.60;99.90;;;;;;5091136;28;20751;-44
2020/12/01 03:39:14;;;;;;;28.30;20.33;;;2.60;99.90;;;;;;5091225;28;20206;-46
2020/12/01 03:41:41;;;;;;;27.90;20.00;;;2.60;99.90;;;;;;5091536;28;20272;-45
2020/12/01 03:44:08;;;;;;;28.97;20.50;;;2.70;99.90;;;;;;5091187;28;20207;-45
2020/12/01 03:46:35;;;;;;;28.33;20.60;;;2.70;99.90;;;;;;5094367;28;20279;-44
2020/12/01 03:49:02;;;;;;;27.17;19.87;;;2.80;99.90;;;;;;5094938;28;20269;-47
2020/12/01 03:51:29;;;;;;;26.67;20.53;;;2.80;99.90;;;;;;5094673;28;20264;-43
2020/12/01 03:53:57;;;;;;;26.30;19.53;;;2.80;99.90;;;;;;5094991;28;20242;-43
2020/12/01 03:56:24;;;;;;;28.20;20.08;;;2.80;99.90;;;;;;5094711;28;20298;-46
2020/12/01 03:58:51;;;;;;;28.30;20.80;;;2.80;99.90;;;;;;5094638;28;20211;-45
2020/12/01 04:01:18;;;;;;;25.50;18.93;;;2.80;99.90;;;;;;5094937;28;20234;-44
2020/12/01 04:03:45;;;;;;;26.07;19.70;;;2.70;99.90;;;;;;5094545;28;20297;-45
2020/12/01 04:06:12;;;;;;;27.70;20.00;;;2.80;99.90;;;;;;5094495;28;20301;-44
2020/12/01 04:08:39;;;;;;;23.87;19.43;;;2.80;99.90;;;;;;5094809;28;20306;-43
2020/12/01 04:11:07;;;;;;;27.10;20.50;;;2.80;99.90;;;;;;5094777;28;20352;-46
2020/12/01 04:13:34;;;;;;;24.97;19.33;;;2.80;99.90;;;;;;5094610;28;20301;-46
2020/12/01 04:16:02;;;;;;;27.07;19.73;;;2.90;99.90;;;;;;5094548;28;20666;-45
2020/12/01 04:18:29;;;;;;;28.40;19.23;;;2.80;99.90;;;;;;5094228;28;20537;-46
2020/12/01 04:20:56;;;;;;;26.30;19.40;;;2.70;99.90;;;;;;5094233;28;20564;-41
2020/12/01 04:23:23;;;;;;;34.67;22.60;;;2.70;99.90;;;;;;5094218;28;20722;-45
2020/12/01 04:25:50;;;;;;;25.40;19.80;;;2.70;99.90;;;;;;5094397;28;20560;-42
2020/12/01 04:28:18;;;;;;;23.87;18.83;;;2.70;99.90;;;;;;5094211;28;20575;-44
2020/12/01 04:30:45;;;;;;;25.17;19.17;;;2.70;99.90;;;;;;5093943;28;20313;-45
2020/12/01 04:33:12;;;;;;;23.23;18.37;;;2.70;99.90;;;;;;5094317;28;20229;-48
2020/12/01 04:35:39;;;;;;;25.87;19.90;;;2.70;99.90;;;;;;5093973;28;20284;-45
2020/12/01 04:38:07;;;;;;;26.33;19.30;;;2.80;99.90;;;;;;5093831;28;20241;-44
2020/12/01 04:40:36;;;;;;;26.67;19.40;;;2.80;99.90;;;;;;5094163;28;20632;-43
2020/12/01 04:43:07;;;;;;;69.73;43.87;;;2.70;99.90;;;;;;5093878;28;20661;-47
2020/12/01 04:45:35;;;;;;;28.73;21.00;;;2.70;99.90;;;;;;5093884;28;20657;-48
2020/12/01 04:48:08;;;;;;;34.97;27.43;;;2.80;99.90;;;;;;5093689;28;20286;-45
2020/12/01 04:50:40;;;;;;;25.07;20.00;;;2.90;99.90;;;;;;5093828;28;20279;-48
2020/12/01 04:53:43;;;;;;;29.60;20.67;;;2.90;99.90;;;;;;5093811;28;20565;-42
2020/12/01 04:56:27;;;;;;;25.10;19.30;;;2.90;99.90;;;;;;5093285;28;20306;-45
2020/12/01 04:59:03;;;;;;;27.13;20.57;;;2.80;99.90;;;;;;5093705;28;20207;-43
2020/12/01 05:02:16;;;;;;;27.10;21.10;;;2.70;99.90;;;;;;5093529;28;20234;-44
2020/12/01 05:04:52;;;;;;;28.10;20.37;;;2.70;99.90;;;;;;5051009;28;20278;-44
2020/12/01 05:07:31;;;;;;;25.57;19.53;;;2.60;99.90;;;;;;5090736;28;20210;-46
2020/12/01 05:10:02;;;;;;;25.70;19.43;;;2.60;99.90;;;;;;5093197;28;20669;-43
2020/12/01 05:12:34;;;;;;;25.73;19.13;;;2.60;99.90;;;;;;5093200;28;20301;-44
2020/12/01 05:15:12;;;;;;;29.30;22.50;;;2.50;99.90;;;;;;5093060;28;20623;-44
2020/12/01 05:18:15;;;;;;;30.63;22.10;;;2.40;99.90;;;;;;5093398;28;20234;-43
2020/12/01 05:20:46;;;;;;;28.07;21.10;;;2.50;99.90;;;;;;5070923;28;20210;-45
2020/12/01 05:23:14;;;;;;;26.60;20.47;;;2.60;99.90;;;;;;5092832;28;20211;-43
2020/12/01 05:25:41;;;;;;;28.90;21.42;;;2.60;99.90;;;;;;5092956;28;20242;-42
2020/12/01 05:28:17;;;;;;;35.40;27.15;;;2.70;99.90;;;;;;5092960;28;20214;-42
2020/12/01 05:30:45;;;;;;;28.57;22.27;;;2.60;99.90;;;;;;5092594;28;20219;-42
2020/12/01 05:33:23;;;;;;;27.77;21.23;;;2.60;99.90;;;;;;5092850;28;20665;-46
2020/12/01 05:36:17;;;;;;;28.53;20.90;;;2.70;99.90;;;;;;5092850;28;20714;-47
2020/12/01 05:38:56;;;;;;;26.10;19.83;;;2.80;99.90;;;;;;5092717;28;20274;-45
2020/12/01 05:41:26;;;;;;;29.63;22.00;;;2.90;99.90;;;;;;5092727;28;20198;-47
2020/12/01 05:43:55;;;;;;;25.30;19.17;;;3.00;99.90;;;;;;5092475;28;20206;-45
2020/12/01 05:46:30;;;;;;;26.60;21.70;;;3.00;99.90;;;;;;5092337;28;20285;-50
2020/12/01 05:49:05;;;;;;;25.67;20.40;;;3.10;99.90;;;;;;5092215;28;20305;-49
2020/12/01 05:51:40;;;;;;;30.63;20.83;;;3.20;99.90;;;;;;5091842;28;20589;-50
2020/12/01 05:54:15;;;;;;;28.33;19.57;;;3.20;99.90;;;;;;5092230;28;20246;-47
2020/12/01 05:56:50;;;;;;;26.43;18.83;;;3.20;99.90;;;;;;5092281;28;20749;-46
2020/12/01 05:59:19;;;;;;;26.20;19.77;;;3.20;99.90;;;;;;5092372;28;20210;-49
2020/12/01 06:01:50;;;;;;;26.27;18.83;;;3.20;99.90;;;;;;5092281;28;20408;-46
2020/12/01 06:04:20;;;;;;;22.83;18.40;;;3.20;99.90;;;;;;5092701;28;20644;-44
2020/12/01 06:07:05;;;;;;;27.93;18.17;;;3.20;99.90;;;;;;5092331;28;20214;-41
2020/12/01 06:09:53;;;;;;;21.10;17.30;;;3.20;99.90;;;;;;5091817;28;20302;-42
2020/12/01 06:12:38;;;;;;;24.83;18.97;;;3.20;99.90;;;;;;5092220;28;20205;-43
2020/12/01 06:15:13;;;;;;;26.37;19.03;;;3.30;99.90;;;;;;5092247;28;20214;-44
2020/12/01 06:17:48;;;;;;;27.07;19.33;;;3.30;99.90;;;;;;5092144;28;20400;-44
2020/12/01 06:20:20;;;;;;;26.33;19.23;;;3.30;99.90;;;;;;5092326;28;20203;-49
2020/12/01 06:23:09;;;;;;;24.63;18.43;;;3.40;99.90;;;;;;5091767;28;20690;-43
2020/12/01 06:26:06;;;;;;;22.97;18.20;;;3.40;99.90;;;;;;5092114;28;20246;-46
2020/12/01 06:29:08;;;;;;;25.40;18.30;;;3.40;99.90;;;;;;5092157;28;20210;-45
2020/12/01 06:32:03;;;;;;;24.17;17.63;;;3.40;99.90;;;;;;5091848;28;20321;-45
2020/12/01 06:34:48;;;;;;;25.87;18.83;;;3.40;99.90;;;;;;5088477;28;20297;-44
2020/12/01 06:37:35;;;;;;;24.00;17.42;;;3.40;99.90;;;;;;5091591;28;20394;-42
2020/12/01 06:40:27;;;;;;;22.97;18.70;;;3.40;99.90;;;;;;5091907;28;20210;-43
2020/12/01 06:43:00;;;;;;;27.23;23.33;;;3.40;99.90;;;;;;5091985;28;20206;-43
2020/12/01 06:45:32;;;;;;;29.30;23.60;;;3.50;99.90;;;;;;5091983;28;20293;-44
2020/12/01 06:48:06;;;;;;;29.53;26.23;;;3.50;99.90;;;;;;5091863;28;20249;-43
2020/12/01 06:50:35;;;;;;;25.37;21.70;;;3.40;99.90;;;;;;5091583;28;20236;-46
2020/12/01 06:53:06;;;;;;;35.70;27.40;;;3.50;99.90;;;;;;5091733;28;20211;-44
2020/12/01 06:55:53;;;;;;;39.03;28.53;;;3.50;99.90;;;;;;5091800;28;20219;-45
2020/12/01 06:58:32;;;;;;;25.20;18.98;;;3.50;99.90;;;;;;5091601;28;20244;-46
2020/12/01 07:01:26;;;;;;;30.23;22.40;;;3.40;99.90;;;;;;5091809;28;20198;-43
2020/12/01 07:04:22;;;;;;;38.22;27.50;;;3.40;99.90;;;;;;5091702;28;20289;-42
2020/12/01 07:06:52;;;;;;;43.15;30.63;;;3.40;99.90;;;;;;5091686;28;20286;-42
2020/12/01 07:09:24;;;;;;;23.17;16.70;;;3.40;99.90;;;;;;5091257;28;20249;-42
2020/12/01 07:12:12;;;;;;;28.60;21.10;;;3.40;99.90;;;;;;5090930;28;20685;-42
2020/12/01 07:14:43;;;;;;;25.10;18.30;;;3.40;99.90;;;;;;5091701;28;20228;-42
2020/12/01 07:17:26;;;;;;;42.60;27.45;;;3.40;99.90;;;;;;5091366;28;20236;-43
2020/12/01 07:19:57;;;;;;;38.90;29.07;;;3.30;99.90;;;;;;5091703;28;20234;-41
2020/12/01 07:22:34;;;;;;;30.77;20.77;;;3.40;99.90;;;;;;5095259;28;20301;-46
2020/12/01 07:25:10;;;;;;;35.27;21.30;;;3.50;99.90;;;;;;5095529;28;20210;-41
2020/12/01 07:27:47;;;;;;;31.10;21.77;;;3.50;99.90;;;;;;5095213;28;20294;-42
2020/12/01 07:30:17;;;;;;;68.35;49.35;;;3.50;99.90;;;;;;5095343;28;20301;-42
2020/12/01 07:32:50;;;;;;;44.28;30.48;;;3.50;99.90;;;;;;5095360;28;20317;-45
2020/12/01 07:35:33;;;;;;;36.08;31.55;;;3.60;99.90;;;;;;5095484;28;20302;-42
2020/12/01 07:38:10;;;;;;;19.43;14.23;;;3.60;99.90;;;;;;5095133;28;20775;-43
2020/12/01 07:40:47;;;;;;;27.17;18.37;;;3.70;99.90;;;;;;5095125;28;20203;-44
2020/12/01 07:43:17;;;;;;;27.93;18.03;;;3.80;99.90;;;;;;5095242;28;20673;-41
2020/12/01 07:45:45;;;;;;;17.57;13.30;;;3.80;99.90;;;;;;5095002;28;20207;-41
2020/12/01 07:48:14;;;;;;;17.33;13.00;;;3.90;99.90;;;;;;5094739;28;20210;-42
2020/12/01 07:50:42;;;;;;;26.97;15.83;;;3.90;99.90;;;;;;5094888;28;20321;-43
2020/12/01 07:53:11;;;;;;;35.87;21.53;;;3.90;99.90;;;;;;5094634;28;20211;-43
2020/12/01 07:55:45;;;;;;;21.13;14.47;;;4.00;99.90;;;;;;5094873;28;20202;-43
2020/12/01 07:58:17;;;;;;;29.50;16.80;;;4.00;99.90;;;;;;5094529;28;20217;-43
2020/12/01 08:00:50;;;;;;;22.87;12.93;;;4.10;99.90;;;;;;5094459;28;20233;-44
2020/12/01 08:03:22;;;;;;;18.37;11.63;;;4.10;99.90;;;;;;5094550;28;20215;-41
2020/12/01 08:05:50;;;;;;;17.15;12.02;;;4.20;99.90;;;;;;5094109;28;20199;-46
2020/12/01 08:08:19;;;;;;;17.60;12.13;;;4.20;99.90;;;;;;5094518;28;20305;-43
2020/12/01 08:10:47;;;;;;;27.13;14.87;;;4.30;99.90;;;;;;5094224;28;20233;-42
2020/12/01 08:13:15;;;;;;;24.83;15.03;;;4.30;99.90;;;;;;5094259;28;20207;-49
2020/12/01 08:15:44;;;;;;;14.10;9.97;;;4.30;99.90;;;;;;5094227;28;20303;-43
2020/12/01 08:18:15;;;;;;;13.80;9.80;;;4.40;99.90;;;;;;5093999;28;20210;-42
2020/12/01 08:20:43;;;;;;;13.73;8.90;;;4.40;99.90;;;;;;5094370;28;20298;-46
2020/12/01 08:23:13;;;;;;;10.60;8.13;;;4.30;99.90;;;;;;5093946;28;20207;-43
2020/12/01 08:25:47;;;;;;;31.83;15.32;;;4.20;99.90;;;;;;5094224;28;20216;-44
2020/12/01 08:28:24;;;;;;;38.65;19.98;;;4.10;99.90;;;;;;5094181;28;20629;-45
2020/12/01 08:31:04;;;;;;;16.17;9.57;;;4.10;99.90;;;;;;5093312;28;20313;-46
2020/12/01 08:33:45;;;;;;;14.75;9.13;;;4.20;99.90;;;;;;5094348;28;20255;-43
2020/12/01 08:36:40;;;;;;;11.13;8.30;;;4.20;99.90;;;;;;5094059;28;20604;-43
2020/12/01 08:39:22;;;;;;;9.93;8.40;;;4.30;99.90;;;;;;5093842;28;20325;-44
2020/12/01 08:41:55;;;;;;;18.37;10.23;;;4.30;99.90;;;;;;5094129;28;20689;-46
2020/12/01 08:44:34;;;;;;;26.42;14.50;;;4.30;99.90;;;;;;5093539;28;20721;-43
2020/12/01 08:47:02;;;;;;;10.17;7.73;;;4.40;99.90;;;;;;5093957;28;20216;-45
2020/12/01 08:49:42;;;;;;;23.83;14.18;;;4.50;99.90;;;;;;5094218;28;20233;-45
2020/12/01 08:52:35;;;;;;;13.77;9.80;;;4.60;99.90;;;;;;5093803;28;20311;-48
2020/12/01 08:55:21;;;;;;;11.33;8.20;;;4.70;99.90;;;;;;5093811;28;20632;-44
2020/12/01 08:57:52;;;;;;;14.05;9.20;;;4.80;99.90;;;;;;5092656;28;20293;-47
2020/12/01 09:00:23;;;;;;;8.48;7.45;;;4.90;99.90;;;;;;5093648;28;20206;-48
2020/12/01 09:02:51;;;;;;;11.65;8.15;;;4.90;99.90;;;;;;5093516;28;20278;-44
2020/12/01 09:05:28;;;;;;;17.07;8.00;;;5.00;99.90;;;;;;5093426;28;20294;-44
2020/12/01 09:14:09;;;;;;;11.18;8.23;;;5.40;99.90;;;;;;5056430;28;20264;-46
2020/12/01 09:20:06;;;;;;;7.47;6.68;;;5.40;99.90;;;;;;5063882;28;20322;-45
2020/12/01 09:22:36;;;;;;;12.90;7.20;;;5.50;99.90;;;;;;5068722;28;20580;-47
2020/12/01 09:25:18;;;;;;;7.68;6.88;;;5.60;99.90;;;;;;5068605;28;20249;-47
2020/12/01 09:27:47;;;;;;;11.27;7.67;;;5.70;99.90;;;;;;5068562;28;20215;-47
2020/12/01 09:30:29;;;;;;;7.80;6.78;;;5.70;99.90;;;;;;5068396;28;20212;-44
2020/12/01 09:32:57;;;;;;;8.05;7.25;;;5.90;99.90;;;;;;5068554;28;20241;-44
2020/12/01 09:35:25;;;;;;;12.73;8.37;;;5.90;99.90;;;;;;5068176;28;20751;-45
2020/12/01 09:37:52;;;;;;;9.50;7.87;;;5.90;99.90;;;;;;5068340;28;20247;-47
2020/12/01 09:40:19;;;;;;;9.10;7.50;;;5.90;99.90;;;;;;5068305;28;20227;-45
2020/12/01 09:42:51;;;;;;;31.85;18.65;;;5.90;99.90;;;;;;5068231;28;20214;-45
2020/12/01 09:45:22;;;;;;;13.60;9.93;;;5.80;99.90;;;;;;5068504;28;20207;-48
2020/12/01 09:47:53;;;;;;;12.52;8.25;;;5.80;99.90;;;;;;5068097;28;20212;-49
2020/12/01 09:50:23;;;;;;;19.57;12.93;;;5.80;99.90;;;;;;5068097;28;20208;-49
2020/12/01 09:53:11;;;;;;;41.88;25.17;;;5.80;99.90;;;;;;5067859;28;20642;-44
2020/12/01 10:09:44;;;;;;;9.18;6.63;;;5.40;99.90;;;;;;5067566;28;20715;-45
2020/12/01 10:12:19;;;;;;;27.75;19.33;;;5.40;99.90;;;;;;5067810;28;20281;-45
2020/12/01 10:17:55;;;;;;;31.63;23.20;;;5.50;99.90;;;;;;5067498;28;20203;-48
2020/12/01 10:34:59;;;;;;;9.35;7.18;;;5.30;99.90;;;;;;4991946;28;20248;-46
2020/12/01 10:37:42;;;;;;;10.57;6.57;;;5.20;99.90;;;;;;5052748;28;20573;-44
2020/12/01 10:40:09;;;;;;;9.27;7.30;;;5.20;99.90;;;;;;5054399;28;20544;-43
2020/12/01 10:42:37;;;;;;;8.88;6.75;;;5.20;99.90;;;;;;5054256;28;20285;-43
2020/12/01 10:45:04;;;;;;;7.57;6.13;;;5.10;99.90;;;;;;5054091;28;20239;-43
2020/12/01 10:47:32;;;;;;;7.82;6.38;;;5.10;99.90;;;;;;5053828;28;20208;-45
2020/12/01 10:49:59;;;;;;;10.07;7.50;;;5.10;99.90;;;;;;5053916;28;20207;-43
2020/12/01 10:52:26;;;;;;;11.07;9.90;;;5.00;99.90;;;;;;5053816;28;20299;-42
2020/12/01 10:54:53;;;;;;;8.30;6.87;;;5.00;99.90;;;;;;5053945;28;20291;-43
2020/12/01 10:57:20;;;;;;;8.32;6.82;;;5.00;99.90;;;;;;5053861;28;20290;-42
2020/12/01 10:59:47;;;;;;;11.53;9.43;;;5.00;99.90;;;;;;5053695;28;20319;-43
2020/12/01 11:02:14;;;;;;;17.10;14.70;;;5.00;99.90;;;;;;5053608;28;20212;-44
2020/12/01 11:04:42;;;;;;;10.20;8.13;;;5.00;99.90;;;;;;5053186;28;20208;-45
2020/12/01 11:07:11;;;;;;;10.65;7.88;;;5.10;99.90;;;;;;5053557;28;20670;-43
2020/12/01 11:09:38;;;;;;;9.10;7.65;;;5.00;99.90;;;;;;5053643;28;20319;-45
2020/12/01 11:12:05;;;;;;;11.38;8.05;;;5.00;99.90;;;;;;5053317;28;20208;-46
2020/12/01 11:14:32;;;;;;;9.13;7.50;;;4.90;99.90;;;;;;5053686;28;20299;-45
2020/12/01 11:16:59;;;;;;;11.65;9.65;;;4.80;99.90;;;;;;5053492;28;20216;-45
2020/12/01 11:19:26;;;;;;;9.30;7.93;;;4.70;99.90;;;;;;5053067;28;20255;-50
2020/12/01 11:21:54;;;;;;;12.02;8.50;;;4.70;99.90;;;;;;5053337;28;20234;-44
2020/12/01 11:24:21;;;;;;;13.97;10.67;;;4.60;99.90;;;;;;5053464;28;20232;-45
2020/12/01 11:26:48;;;;;;;10.60;8.30;;;4.50;99.90;;;;;;5053444;28;20307;-45
2020/12/01 11:29:15;;;;;;;10.88;8.18;;;4.50;99.90;;;;;;5053359;28;20208;-46
2020/12/01 11:31:43;;;;;;;16.83;13.03;;;4.50;99.90;;;;;;5053424;28;20606;-45
2020/12/01 11:34:12;;;;;;;15.23;13.50;;;4.50;99.90;;;;;;5052051;28;20212;-44
2020/12/01 11:36:40;;;;;;;13.55;10.70;;;4.50;99.90;;;;;;5053330;28;20208;-44
2020/12/01 11:39:11;;;;;;;13.37;11.13;;;4.60;99.90;;;;;;5053072;28;20234;-43
2020/12/01 11:41:38;;;;;;;12.23;9.20;;;4.70;99.90;;;;;;5052914;28;20681;-43
2020/12/01 11:44:06;;;;;;;9.60;8.30;;;4.70;99.90;;;;;;5053115;28;20265;-43
2020/12/01 11:46:33;;;;;;;13.03;9.33;;;4.70;99.90;;;;;;5052908;28;20212;-42
2020/12/01 11:49:01;;;;;;;9.18;7.95;;;4.70;99.90;;;;;;5053028;28;20212;-43
2020/12/01 11:51:34;;;;;;;10.30;9.13;;;4.70;99.90;;;;;;5053113;28;20230;-42
2020/12/01 11:54:01;;;;;;;12.63;11.53;;;4.70;99.90;;;;;;5052729;28;20295;-43
2020/12/01 11:56:29;;;;;;;63.17;38.93;;;4.80;99.90;;;;;;5052693;28;20213;-41
2020/12/01 11:58:57;;;;;;;22.23;17.33;;;4.80;99.90;;;;;;5052676;28;20729;-41
2020/12/01 12:01:24;;;;;;;17.97;13.13;;;4.90;99.90;;;;;;5052717;28;20236;-43
2020/12/01 12:03:51;;;;;;;12.50;10.97;;;5.00;99.90;;;;;;5052585;28;20643;-44
2020/12/01 12:06:18;;;;;;;11.80;10.27;;;5.10;99.90;;;;;;5052747;28;20299;-43
2020/12/01 12:08:46;;;;;;;10.03;8.73;;;5.10;99.90;;;;;;5052379;28;20218;-43
2020/12/01 12:11:13;;;;;;;7.83;7.03;;;5.20;99.90;;;;;;5052221;28;20270;-41
2020/12/01 12:13:45;;;;;;;7.73;6.93;;;5.20;99.90;;;;;;5052506;28;20294;-41
2020/12/01 12:16:14;;;;;;;7.50;6.47;;;5.20;99.90;;;;;;5052704;28;20299;-42
2020/12/01 12:18:41;;;;;;;7.05;6.35;;;5.20;99.90;;;;;;5052492;28;20221;-44
2020/12/01 12:21:08;;;;;;;7.70;6.38;;;5.20;99.90;;;;;;5052212;28;20309;-43
2020/12/01 12:23:35;;;;;;;7.67;6.80;;;5.20;99.90;;;;;;5052379;28;20211;-42
2020/12/01 12:26:03;;;;;;;8.65;7.75;;;5.10;99.90;;;;;;5052174;28;20231;-41
2020/12/01 12:28:30;;;;;;;7.73;6.93;;;5.00;99.90;;;;;;5052258;28;20773;-43
2020/12/01 12:31:01;;;;;;;8.80;7.90;;;4.90;99.90;;;;;;5052744;28;20330;-41
2020/12/01 12:33:30;;;;;;;8.73;7.83;;;5.00;99.90;;;;;;5053518;28;20304;-42
2020/12/01 12:35:58;;;;;;;8.23;7.40;;;4.90;99.90;;;;;;5054664;28;20302;-41
2020/12/01 12:38:26;;;;;;;7.88;7.18;;;4.90;99.90;;;;;;5052028;28;20295;-41
2020/12/01 12:40:53;;;;;;;9.37;7.70;;;4.80;99.90;;;;;;5051932;28;20323;-41
2020/12/01 12:43:21;;;;;;;10.23;8.88;;;4.80;99.90;;;;;;5052024;28;20210;-44
2020/12/01 12:45:48;;;;;;;11.47;9.50;;;4.70;99.90;;;;;;5051629;28;20234;-45
2020/12/01 12:48:18;;;;;;;9.27;8.27;;;4.70;99.90;;;;;;5051857;28;20294;-41
2020/12/01 12:50:45;;;;;;;9.15;7.78;;;4.70;99.90;;;;;;5052060;28;20628;-40
2020/12/01 12:53:12;;;;;;;9.00;7.60;;;4.70;99.90;;;;;;5051701;28;20303;-42
2020/12/01 12:55:39;;;;;;;11.95;9.38;;;4.70;99.90;;;;;;5051883;28;20276;-41
2020/12/01 12:58:06;;;;;;;10.35;8.75;;;4.60;99.90;;;;;;5052152;28;20425;-42
2020/12/01 13:00:34;;;;;;;8.93;8.03;;;4.60;99.90;;;;;;5051799;28;20228;-41
2020/12/01 13:03:01;;;;;;;9.70;8.70;;;4.50;99.90;;;;;;5051855;28;20303;-40
2020/12/01 13:05:29;;;;;;;10.10;8.33;;;4.50;99.90;;;;;;5051860;28;20295;-42
2020/12/01 13:07:57;;;;;;;9.13;8.13;;;4.50;99.90;;;;;;5051712;28;20211;-41
2020/12/01 13:10:24;;;;;;;7.73;7.03;;;4.40;99.90;;;;;;5051697;28;20235;-41
2020/12/01 13:12:52;;;;;;;7.90;7.20;;;4.40;99.90;;;;;;5051635;28;20631;-43
2020/12/01 13:15:20;;;;;;;8.60;7.45;;;4.50;99.90;;;;;;5051561;28;20730;-41
2020/12/01 13:17:48;;;;;;;9.87;8.43;;;4.40;99.90;;;;;;5051728;28;20212;-41
2020/12/01 13:20:19;;;;;;;9.25;8.32;;;4.30;99.90;;;;;;5051566;28;20800;-41
2020/12/01 13:22:48;;;;;;;9.07;8.17;;;4.30;99.90;;;;;;5051892;28;20347;-44
2020/12/01 13:25:15;;;;;;;8.80;8.00;;;4.20;99.90;;;;;;5051881;28;20235;-42
2020/12/01 13:27:42;;;;;;;9.67;8.67;;;4.20;99.90;;;;;;5051571;28;20215;-41
2020/12/01 13:30:11;;;;;;;11.27;8.80;;;4.20;99.90;;;;;;5051635;28;20256;-41
2020/12/01 13:32:38;;;;;;;9.23;8.23;;;4.20;99.90;;;;;;5051750;28;20300;-42
2020/12/01 13:35:07;;;;;;;8.18;7.32;;;4.20;99.90;;;;;;5051690;28;20319;-42
2020/12/01 13:37:34;;;;;;;8.45;7.65;;;4.20;99.90;;;;;;5051820;28;20212;-42
2020/12/01 13:40:03;;;;;;;9.10;8.20;;;4.30;99.90;;;;;;5051847;28;20220;-43
2020/12/01 13:42:30;;;;;;;10.33;9.33;;;4.30;99.90;;;;;;5051627;28;20677;-42